Yvonne K. — PBLX — position and weather

sailwx.info

Track history (hours):
 
Tides and Currents Weather Stations Pressure Air Temp Water Temp Dewpoint Dewpoint Depression Visibility Wind Speed Wind Dir Waves Ship Positions

Yvonne K.

Last reported at 2015-Aug-02 07:27 UTC. Time now 2015-Aug-02 18:21 UTC.
Position N 51°42' E 004°35'.

; draft 5.3 m.

Type: Cargo ship. MMSI: 244948000.

Date/timePositionNaut miles runAvg speedWind from/ knotsBaromVisibWave heightAir tempDewpointWater temp
2015-Aug-02 07:27N 51°42' E 004°35'0 0.0
2015-Aug-02 06:30N 51°42' E 004°35'0 0.0
2015-Aug-02 05:27N 51°42' E 004°35'0 0.0
2015-Aug-02 02:30N 51°42' E 004°35'0 0.0
2015-Aug-01 23:33N 51°42' E 004°35'0 0.0
2015-Aug-01 16:03N 51°42' E 004°35'0 0.0
2015-Aug-01 14:18N 51°42' E 004°35'0 0.0
2015-Aug-01 13:21N 51°42' E 004°35'0 0.0
2015-Aug-01 12:24N 51°42' E 004°35'0 0.0
2015-Aug-01 10:27N 51°42' E 004°35'0 0.0
2015-Aug-01 09:21N 51°42' E 004°35'0 0.0
2015-Aug-01 06:06N 51°42' E 004°35'0 0.0
2015-Aug-01 04:33N 51°42' E 004°35'0 0.0
2015-Aug-01 03:30N 51°42' E 004°35'0 0.0
2015-Aug-01 02:18N 51°42' E 004°35'0 0.0
2015-Aug-01 01:24N 51°42' E 004°35'0 0.0
2015-Aug-01 00:12N 51°42' E 004°35'0 0.0
2015-Jul-31 23:24N 51°42' E 004°35'0 0.0
2015-Jul-31 22:27N 51°42' E 004°35'0 0.0
2015-Jul-31 21:33N 51°42' E 004°35'0 0.0
2015-Jul-31 18:21N 51°42' E 004°35'0 0.0
2015-Jul-31 17:33N 51°42' E 004°35'6 6.5
2015-Jul-31 16:34N 51°48' E 004°37'9 9.5
2015-Jul-31 15:33N 51°51' E 004°23'9 9.4
2015-Jul-31 14:33N 51°57' E 004°11'10 9.8
2015-Jul-31 13:34N 52°00' E 003°56'10 9.3
2015-Jul-31 12:26N 51°58' E 003°40'8 9.3
2015-Jul-31 11:33N 51°55' E 003°27'51 7.2
2015-Jul-31 04:30N 51°30' E 002°16'8 8.8
2015-Jul-31 03:33N 51°23' E 002°10'9 9.3
2015-Jul-31 02:33N 51°14' E 002°03'1010.1
2015-Jul-31 01:33N 51°08' E 001°50'1110.9
2015-Jul-31 00:33N 51°00' E 001°38'1211.8
2015-Jul-30 23:31N 50°50' E 001°27'  
2015-Jul-27 23:31N 43°48' W 005°58'  
2015-Jul-25 12:32N 43°39' W 005°56'9 9.2
2015-Jul-25 11:30N 43°44' W 005°45'9 8.8
2015-Jul-25 10:31N 43°44' W 005°33'9 8.9
2015-Jul-25 09:30N 43°43' W 005°21'8 8.6
2015-Jul-25 08:34N 43°42' W 005°10'8 8.3
2015-Jul-25 07:33N 43°41' W 004°58'  
Track history (hours):
 
Tides and Currents Weather Stations Pressure Air Temp Water Temp Dewpoint Dewpoint Depression Visibility Wind Speed Wind Dir Waves Ship Positions

Yvonne K.

Last reported at 2015-Aug-02 07:27 UTC. Time now 2015-Aug-02 18:21 UTC.
Position N 51°42' E 004°35'.

; draft 5.3 m.

Type: Cargo ship. MMSI: 244948000.

Date/timePositionNaut miles runAvg speedWind from/ knotsBaromVisibWave heightAir tempDewpointWater temp
2015-Aug-02 07:27N 51°42' E 004°35'0 0.0
2015-Aug-02 06:30N 51°42' E 004°35'0 0.0
2015-Aug-02 05:27N 51°42' E 004°35'0 0.0
2015-Aug-02 02:30N 51°42' E 004°35'0 0.0
2015-Aug-01 23:33N 51°42' E 004°35'0 0.0
2015-Aug-01 16:03N 51°42' E 004°35'0 0.0
2015-Aug-01 14:18N 51°42' E 004°35'0 0.0
2015-Aug-01 13:21N 51°42' E 004°35'0 0.0
2015-Aug-01 12:24N 51°42' E 004°35'0 0.0
2015-Aug-01 10:27N 51°42' E 004°35'0 0.0
2015-Aug-01 09:21N 51°42' E 004°35'0 0.0
2015-Aug-01 06:06N 51°42' E 004°35'0 0.0
2015-Aug-01 04:33N 51°42' E 004°35'0 0.0
2015-Aug-01 03:30N 51°42' E 004°35'0 0.0
2015-Aug-01 02:18N 51°42' E 004°35'0 0.0
2015-Aug-01 01:24N 51°42' E 004°35'0 0.0
2015-Aug-01 00:12N 51°42' E 004°35'0 0.0
2015-Jul-31 23:24N 51°42' E 004°35'0 0.0
2015-Jul-31 22:27N 51°42' E 004°35'0 0.0
2015-Jul-31 21:33N 51°42' E 004°35'0 0.0
2015-Jul-31 18:21N 51°42' E 004°35'0 0.0
2015-Jul-31 17:33N 51°42' E 004°35'6 6.5
2015-Jul-31 16:34N 51°48' E 004°37'9 9.5
2015-Jul-31 15:33N 51°51' E 004°23'9 9.4
2015-Jul-31 14:33N 51°57' E 004°11'10 9.8
2015-Jul-31 13:34N 52°00' E 003°56'10 9.3
2015-Jul-31 12:26N 51°58' E 003°40'8 9.3
2015-Jul-31 11:33N 51°55' E 003°27'51 7.2
2015-Jul-31 04:30N 51°30' E 002°16'8 8.8
2015-Jul-31 03:33N 51°23' E 002°10'9 9.3
2015-Jul-31 02:33N 51°14' E 002°03'1010.1
2015-Jul-31 01:33N 51°08' E 001°50'1110.9
2015-Jul-31 00:33N 51°00' E 001°38'1211.8
2015-Jul-30 23:31N 50°50' E 001°27'  
2015-Jul-27 23:31N 43°48' W 005°58'  
2015-Jul-25 12:32N 43°39' W 005°56'9 9.2
2015-Jul-25 11:30N 43°44' W 005°45'9 8.8
2015-Jul-25 10:31N 43°44' W 005°33'9 8.9
2015-Jul-25 09:30N 43°43' W 005°21'8 8.6
2015-Jul-25 08:34N 43°42' W 005°10'8 8.3
2015-Jul-25 07:33N 43°41' W 004°58'  

Dump ship's entire track history